Time;durP1;ratioP1;P1;durP2;ratioP2;P2;SDS_P1;SDS_P2;PMS_P1;PMS_P2;Temp;Humidity;BMP_temperature;BMP_pressure;BME280_temperature;BME280_humidity;BME280_pressure;Samples;Min_cycle;Max_cycle;Signal;HPM_P1;HPM_P2
2022/03/13 00:01:11;;;;;;;16.80;7.23;;;-3.30;99.90;;;;;;8349156;28;20209;-63
2022/03/13 00:05:17;;;;;;;14.63;6.47;;;-3.40;99.90;;;;;;8352249;28;20215;-63
2022/03/13 00:09:23;;;;;;;13.10;6.20;;;-3.50;1.00;;;;;;8353500;28;20265;-63
2022/03/13 00:13:30;;;;;;;13.13;5.23;;;-3.60;1.00;;;;;;8354626;28;20212;-63
2022/03/13 00:17:31;;;;;;;13.00;6.47;;;-3.70;1.00;;;;;;8335396;28;20201;-63
2022/03/13 00:21:35;;;;;;;9.83;5.63;;;-3.80;1.00;;;;;;8352661;28;20219;-64
2022/03/13 00:25:36;;;;;;;15.97;6.83;;;-3.90;1.00;;;;;;8353350;28;20195;-64
2022/03/13 00:29:37;;;;;;;14.20;6.93;;;-3.90;37.90;;;;;;8340832;28;20224;-63
2022/03/13 00:33:38;;;;;;;16.27;6.20;;;-4.10;99.90;;;;;;8334758;28;20229;-63
2022/03/13 00:37:38;;;;;;;13.47;6.03;;;-4.20;99.90;;;;;;8351349;28;20205;-63
2022/03/13 00:41:39;;;;;;;12.53;5.53;;;-4.20;99.90;;;;;;8334702;28;20279;-63
2022/03/13 00:45:40;;;;;;;9.77;5.50;;;-4.30;99.90;;;;;;8351078;28;20209;-63
2022/03/13 00:49:41;;;;;;;15.83;7.27;;;-4.30;99.90;;;;;;8350845;28;20219;-64
2022/03/13 00:53:43;;;;;;;14.53;5.80;;;-4.40;99.90;;;;;;8351548;28;20213;-63
2022/03/13 00:57:44;;;;;;;11.90;6.03;;;-4.50;1.00;;;;;;8347637;28;20201;-63
2022/03/13 01:01:46;;;;;;;12.93;6.73;;;-4.50;1.00;;;;;;8343880;28;20249;-64
2022/03/13 01:05:46;;;;;;;10.40;5.70;;;-4.60;44.90;;;;;;8351166;28;20233;-63
2022/03/13 01:09:47;;;;;;;11.73;6.23;;;-4.70;99.90;;;;;;8331763;28;20229;-63
2022/03/13 01:13:49;;;;;;;14.77;6.17;;;-4.60;99.90;;;;;;8351217;28;20257;-63
2022/03/13 01:17:50;;;;;;;13.37;6.20;;;-4.60;99.90;;;;;;8333158;28;20229;-63
2022/03/13 01:21:51;;;;;;;12.30;4.87;;;-4.60;99.90;;;;;;8332580;28;20205;-63
2022/03/13 01:26:24;;;;;;;10.50;5.00;;;-4.60;43.50;;;;;;8333978;28;20214;-63
2022/03/13 01:30:24;;;;;;;12.93;5.67;;;-4.60;52.80;;;;;;8351018;28;20241;-63
2022/03/13 01:34:35;;;;;;;11.00;6.07;;;-4.70;99.90;;;;;;8333228;28;20209;-64
2022/03/13 01:38:35;;;;;;;11.07;5.03;;;-4.70;99.90;;;;;;8350846;28;20579;-63
2022/03/13 01:42:40;;;;;;;11.17;5.50;;;-4.60;99.90;;;;;;8332856;28;20201;-64
2022/03/13 01:46:40;;;;;;;14.77;5.50;;;-4.50;48.80;;;;;;8349151;28;20236;-63
2022/03/13 01:50:41;;;;;;;14.83;6.17;;;-4.40;1.00;;;;;;8348408;28;20250;-63
2022/03/13 01:54:45;;;;;;;11.67;6.23;;;-4.30;99.90;;;;;;8350072;28;20203;-63
2022/03/13 01:58:53;;;;;;;11.17;5.43;;;-4.20;99.90;;;;;;8348385;28;20233;-63
2022/03/13 02:02:54;;;;;;;15.33;5.90;;;-4.20;99.90;;;;;;8343757;28;20234;-63
2022/03/13 02:06:58;;;;;;;14.90;6.63;;;-4.10;99.90;;;;;;8330989;28;20198;-63
2022/03/13 02:10:59;;;;;;;16.03;6.70;;;-4.10;99.90;;;;;;8341981;28;20201;-63
2022/03/13 02:15:00;;;;;;;10.40;5.67;;;-4.00;26.40;;;;;;8348666;28;20202;-64
2022/03/13 02:19:01;;;;;;;18.57;6.93;;;-3.80;1.00;;;;;;8348743;28;20199;-63
2022/03/13 02:23:13;;;;;;;11.50;5.23;;;-3.70;1.00;;;;;;8330196;28;20536;-64
2022/03/13 02:27:23;;;;;;;13.53;6.73;;;-3.60;1.00;;;;;;8345380;28;20214;-63
2022/03/13 02:31:34;;;;;;;10.03;5.67;;;-3.50;99.90;;;;;;8339329;28;20204;-62
2022/03/13 02:35:35;;;;;;;14.43;6.60;;;-3.30;99.90;;;;;;8349090;28;20231;-63
2022/03/13 02:39:37;;;;;;;13.60;5.83;;;-3.20;99.90;;;;;;8343268;28;20217;-63
2022/03/13 02:43:38;;;;;;;13.33;6.33;;;-3.10;99.90;;;;;;8328960;28;20215;-63
2022/03/13 02:47:39;;;;;;;13.57;6.40;;;-3.00;99.90;;;;;;8333423;28;20214;-63
2022/03/13 02:51:41;;;;;;;17.27;6.43;;;-2.90;99.90;;;;;;8347306;28;20207;-63
2022/03/13 02:55:43;;;;;;;17.70;7.07;;;-2.90;99.90;;;;;;8328915;28;20212;-64
2022/03/13 02:59:44;;;;;;;13.73;6.43;;;-2.80;99.90;;;;;;8344532;28;20219;-63
2022/03/13 03:03:45;;;;;;;14.10;5.73;;;-2.70;98.60;;;;;;8346786;28;20288;-63
2022/03/13 03:07:46;;;;;;;13.93;6.73;;;-2.50;49.80;;;;;;8346505;28;20318;-63
2022/03/13 03:11:47;;;;;;;12.40;6.30;;;-2.50;28.50;;;;;;8336518;28;20219;-63
2022/03/13 03:15:48;;;;;;;19.53;6.93;;;-2.40;1.70;;;;;;8347803;28;20288;-63
2022/03/13 03:19:48;;;;;;;20.23;7.27;;;-2.40;1.00;;;;;;8353165;28;20204;-64
2022/03/13 03:23:50;;;;;;;16.13;6.73;;;-2.30;1.00;;;;;;8341306;28;20275;-64
2022/03/13 03:27:51;;;;;;;17.07;6.23;;;-2.20;1.00;;;;;;8353473;28;20211;-64
2022/03/13 03:31:53;;;;;;;16.60;7.00;;;-2.20;1.00;;;;;;8352247;28;20208;-64
2022/03/13 03:35:54;;;;;;;14.97;7.40;;;-2.20;1.00;;;;;;8345078;28;20201;-65
2022/03/13 03:39:55;;;;;;;15.20;6.77;;;-2.30;1.00;;;;;;8343011;28;20215;-65
2022/03/13 03:43:56;;;;;;;15.97;6.90;;;-2.40;1.00;;;;;;8345799;28;20297;-63
2022/03/13 03:47:57;;;;;;;13.67;6.50;;;-2.40;1.00;;;;;;8348844;28;20436;-63
2022/03/13 03:51:58;;;;;;;15.17;7.03;;;-2.40;1.00;;;;;;8345701;28;20645;-63
2022/03/13 03:55:59;;;;;;;8.87;5.80;;;-2.40;1.00;;;;;;8348842;28;20197;-63
2022/03/13 04:00:00;;;;;;;13.40;7.50;;;-2.50;1.00;;;;;;8327844;28;20498;-64
2022/03/13 04:04:00;;;;;;;13.70;6.93;;;-2.50;1.00;;;;;;8352294;28;20228;-64
2022/03/13 04:08:01;;;;;;;11.13;6.03;;;-2.40;1.00;;;;;;8351727;28;20248;-64
2022/03/13 04:12:07;;;;;;;12.90;6.20;;;-2.40;1.00;;;;;;8352060;28;20202;-64
2022/03/13 04:16:09;;;;;;;15.30;6.33;;;-2.30;1.00;;;;;;8346013;28;20250;-64
2022/03/13 04:20:10;;;;;;;9.97;5.83;;;-2.30;1.00;;;;;;8333826;28;20246;-63
2022/03/13 04:24:12;;;;;;;17.10;6.70;;;-2.30;1.00;;;;;;8335157;28;20209;-64
2022/03/13 04:28:12;;;;;;;9.47;5.20;;;-2.30;1.00;;;;;;8334559;28;20213;-64
2022/03/13 04:32:14;;;;;;;13.43;5.93;;;-2.20;1.00;;;;;;8352435;28;20208;-63
2022/03/13 04:36:20;;;;;;;10.53;5.37;;;-2.20;1.00;;;;;;8335416;28;20212;-63
2022/03/13 04:40:20;;;;;;;15.20;6.47;;;-2.20;1.00;;;;;;8351456;28;20193;-64
2022/03/13 04:44:22;;;;;;;15.27;6.57;;;-2.20;1.00;;;;;;8336385;28;20213;-64
2022/03/13 04:48:23;;;;;;;16.43;6.80;;;-2.10;1.00;;;;;;8346658;28;20229;-64
2022/03/13 04:52:24;;;;;;;11.50;5.87;;;-2.10;1.00;;;;;;8351692;28;20215;-64
2022/03/13 04:56:24;;;;;;;12.67;6.17;;;-2.10;1.00;;;;;;8350290;28;20202;-65
2022/03/13 05:00:27;;;;;;;11.37;5.87;;;-2.10;1.00;;;;;;8331158;28;20722;-65
2022/03/13 05:04:28;;;;;;;14.37;6.20;;;-2.10;1.00;;;;;;8351544;28;20215;-65
2022/03/13 05:08:28;;;;;;;11.97;5.80;;;-2.20;1.00;;;;;;8347713;28;20648;-64
2022/03/13 05:12:29;;;;;;;10.63;5.50;;;-2.20;1.00;;;;;;8344868;28;20205;-65
2022/03/13 05:16:31;;;;;;;15.83;6.00;;;-2.30;1.00;;;;;;8329801;28;20282;-65
2022/03/13 05:20:35;;;;;;;10.47;5.90;;;-2.30;1.00;;;;;;8338083;28;20213;-64
2022/03/13 05:24:36;;;;;;;12.30;6.33;;;-2.20;1.00;;;;;;8330232;28;20316;-64
2022/03/13 05:28:38;;;;;;;10.43;5.73;;;-2.20;1.00;;;;;;8328809;28;20228;-64
2022/03/13 05:32:39;;;;;;;16.20;6.33;;;-2.20;1.00;;;;;;8343500;28;20211;-64
2022/03/13 05:36:39;;;;;;;11.00;6.07;;;-2.20;1.00;;;;;;8334835;28;21116;-62
2022/03/13 05:40:41;;;;;;;11.70;6.03;;;-2.20;1.00;;;;;;8339508;28;20197;-62
2022/03/13 05:44:41;;;;;;;17.97;6.97;;;-2.10;1.00;;;;;;8350036;28;20231;-64
2022/03/13 05:48:42;;;;;;;14.03;5.77;;;-2.00;1.00;;;;;;8339580;28;20228;-63
2022/03/13 05:52:45;;;;;;;16.87;6.37;;;-1.80;1.00;;;;;;8337385;28;20304;-64
2022/03/13 05:56:47;;;;;;;10.57;5.17;;;-1.70;1.00;;;;;;8345162;28;20234;-64
2022/03/13 06:01:03;;;;;;;11.87;6.00;;;-1.60;1.00;;;;;;8332911;28;20333;-65
2022/03/13 06:05:04;;;;;;;10.87;5.13;;;-1.30;1.00;;;;;;8350818;28;20202;-66
2022/03/13 06:09:05;;;;;;;20.93;8.20;;;-1.10;99.90;;;;;;8332312;28;20329;-65
2022/03/13 06:13:06;;;;;;;16.90;6.50;;;-0.80;99.90;;;;;;8331871;28;20201;-66
2022/03/13 06:17:07;;;;;;;9.37;5.30;;;-0.60;99.90;;;;;;8332538;28;20208;-66
2022/03/13 06:21:08;;;;;;;10.00;5.70;;;-0.40;99.90;;;;;;8323902;28;20285;-64
2022/03/13 06:25:11;;;;;;;9.20;4.77;;;-0.10;99.90;;;;;;8331653;28;20212;-66
2022/03/13 06:29:14;;;;;;;11.30;5.20;;;0.10;99.90;;;;;;8331183;28;20233;-66
2022/03/13 06:33:15;;;;;;;11.53;5.63;;;0.40;99.90;;;;;;8349443;28;20216;-63
2022/03/13 06:37:16;;;;;;;11.80;5.60;;;0.60;99.90;;;;;;8331779;28;20233;-65
2022/03/13 06:41:18;;;;;;;9.77;4.70;;;0.90;99.90;;;;;;8349778;28;20201;-65
2022/03/13 06:45:19;;;;;;;19.53;7.67;;;1.10;96.00;;;;;;8330564;28;20249;-64
2022/03/13 06:49:20;;;;;;;13.97;6.27;;;1.30;76.30;;;;;;8348678;28;20293;-65
2022/03/13 06:53:21;;;;;;;9.30;5.80;;;1.50;46.70;;;;;;8347580;28;20216;-63
2022/03/13 06:57:22;;;;;;;10.53;5.50;;;1.70;28.60;;;;;;8337318;28;20214;-66
2022/03/13 07:01:24;;;;;;;13.03;5.47;;;1.90;12.60;;;;;;8347450;28;20669;-66
2022/03/13 07:05:25;;;;;;;12.63;6.37;;;2.10;1.00;;;;;;8346905;28;20208;-64
2022/03/13 07:09:26;;;;;;;11.50;5.63;;;2.20;1.00;;;;;;8342659;28;20233;-64
2022/03/13 07:13:32;;;;;;;12.10;6.63;;;2.40;1.00;;;;;;8329740;28;20603;-62
2022/03/13 07:17:34;;;;;;;13.23;6.40;;;2.60;1.00;;;;;;8333383;28;20238;-66
2022/03/13 07:21:34;;;;;;;13.17;6.37;;;2.70;1.00;;;;;;8348125;28;20460;-63
2022/03/13 07:25:35;;;;;;;11.80;6.00;;;2.90;1.00;;;;;;8346704;28;20243;-66
2022/03/13 07:29:36;;;;;;;11.23;6.50;;;3.10;1.00;;;;;;8329733;28;20229;-63
2022/03/13 07:33:37;;;;;;;14.13;6.63;;;3.30;1.00;;;;;;8329938;28;20209;-65
2022/03/13 07:37:38;;;;;;;13.43;6.83;;;3.50;1.00;;;;;;8348327;28;20216;-66
2022/03/13 07:41:39;;;;;;;15.30;8.10;;;3.60;1.00;;;;;;8330450;28;20220;-64
2022/03/13 07:45:40;;;;;;;13.43;6.80;;;3.90;1.00;;;;;;8334803;28;20217;-66
2022/03/13 07:49:40;;;;;;;11.47;6.07;;;4.10;1.00;;;;;;8346856;28;20244;-65
2022/03/13 07:53:41;;;;;;;11.10;6.43;;;4.30;1.00;;;;;;8328224;28;20220;-62
2022/03/13 07:57:43;;;;;;;9.83;5.67;;;4.50;1.00;;;;;;8341642;28;20231;-66
2022/03/13 08:01:44;;;;;;;10.87;7.70;;;4.70;1.00;;;;;;8331948;28;20223;-65
2022/03/13 08:05:45;;;;;;;9.17;5.63;;;4.90;1.00;;;;;;8353017;28;20637;-64
2022/03/13 08:09:45;;;;;;;11.40;6.20;;;5.10;1.00;;;;;;8353467;28;20224;-62
2022/03/13 08:13:48;;;;;;;10.47;5.60;;;5.20;1.00;;;;;;8335835;28;20341;-64
2022/03/13 08:17:49;;;;;;;12.30;6.23;;;5.40;1.00;;;;;;8352914;28;21474;-64
2022/03/13 08:21:49;;;;;;;9.07;6.40;;;5.60;1.00;;;;;;8335591;28;20205;-63
2022/03/13 08:25:50;;;;;;;10.23;6.20;;;5.70;1.00;;;;;;8352947;28;20200;-63
2022/03/13 08:29:52;;;;;;;12.03;7.13;;;5.90;1.00;;;;;;8342669;28;20430;-62
2022/03/13 08:33:53;;;;;;;30.03;11.17;;;6.20;1.00;;;;;;8352743;28;20231;-62
2022/03/13 08:37:55;;;;;;;12.70;7.03;;;6.30;1.00;;;;;;8333538;28;20212;-62
2022/03/13 08:41:56;;;;;;;10.30;5.47;;;6.50;1.00;;;;;;8335777;28;20223;-62
2022/03/13 08:45:58;;;;;;;19.23;6.63;;;6.50;1.00;;;;;;8341395;28;20486;-63
2022/03/13 08:49:59;;;;;;;11.60;5.73;;;6.60;1.00;;;;;;8349770;28;20225;-63
2022/03/13 08:54:00;;;;;;;10.13;5.43;;;6.70;1.00;;;;;;8335142;28;20275;-63
2022/03/13 08:58:01;;;;;;;20.53;9.20;;;6.70;1.00;;;;;;8342691;28;20521;-63
2022/03/13 09:02:03;;;;;;;12.30;6.27;;;6.90;1.00;;;;;;8337110;28;20225;-63
2022/03/13 09:06:04;;;;;;;15.00;5.97;;;7.10;1.00;;;;;;8333731;28;20214;-63
2022/03/13 09:10:08;;;;;;;15.10;6.70;;;7.30;1.00;;;;;;8351958;28;20442;-63
2022/03/13 09:14:09;;;;;;;22.87;10.63;;;7.30;1.00;;;;;;8351753;28;20255;-63
2022/03/13 09:18:10;;;;;;;16.40;6.30;;;7.50;1.00;;;;;;8351628;28;20206;-64
2022/03/13 09:22:14;;;;;;;9.10;4.90;;;7.60;1.00;;;;;;8333957;28;20267;-64
2022/03/13 09:26:17;;;;;;;12.83;7.50;;;7.70;1.00;;;;;;8333303;28;20233;-63
2022/03/13 09:30:18;;;;;;;23.37;10.20;;;7.80;1.00;;;;;;8350230;28;20300;-64
2022/03/13 09:34:19;;;;;;;18.83;8.47;;;7.90;1.00;;;;;;8333485;28;20206;-64
2022/03/13 09:38:20;;;;;;;18.00;8.77;;;8.10;1.00;;;;;;8350733;28;20263;-67
2022/03/13 09:42:21;;;;;;;12.37;6.83;;;8.30;1.00;;;;;;8351053;28;20229;-65
2022/03/13 09:46:25;;;;;;;9.90;5.13;;;8.30;1.00;;;;;;8330795;28;20217;-64
2022/03/13 09:50:28;;;;;;;18.57;10.20;;;8.40;1.00;;;;;;8349536;28;20233;-64
2022/03/13 09:54:29;;;;;;;15.60;7.17;;;8.50;1.00;;;;;;8335825;28;20240;-64
2022/03/13 09:58:30;;;;;;;13.83;6.80;;;8.50;1.00;;;;;;8335710;28;20240;-65
2022/03/13 10:02:36;;;;;;;9.17;5.67;;;8.60;1.00;;;;;;8350263;28;20214;-65
2022/03/13 10:07:03;;;;;;;11.03;5.90;;;8.70;1.00;;;;;;8338224;28;20202;-66
2022/03/13 10:11:04;;;;;;;9.47;6.10;;;8.80;1.00;;;;;;8347042;28;20263;-64
2022/03/13 10:15:08;;;;;;;9.30;5.80;;;8.80;1.00;;;;;;8349241;28;20554;-65
2022/03/13 10:19:17;;;;;;;20.87;10.73;;;8.90;1.00;;;;;;8317554;28;20207;-65
2022/03/13 10:23:22;;;;;;;10.73;7.30;;;9.10;1.00;;;;;;8349031;28;20209;-65
2022/03/13 10:27:23;;;;;;;14.70;7.03;;;9.20;1.00;;;;;;8345926;28;20205;-65
2022/03/13 10:31:25;;;;;;;9.40;5.60;;;9.30;1.00;;;;;;8348434;28;20206;-64
2022/03/13 10:35:25;;;;;;;7.93;5.20;;;9.40;1.00;;;;;;8348816;28;20240;-66
2022/03/13 10:39:27;;;;;;;7.73;4.93;;;9.40;1.00;;;;;;8344002;28;20206;-65
2022/03/13 10:43:29;;;;;;;9.57;5.20;;;9.40;1.00;;;;;;8329827;28;20198;-63
2022/03/13 10:47:31;;;;;;;9.07;5.60;;;9.50;1.00;;;;;;8347208;28;20209;-65
2022/03/13 10:51:46;;;;;;;16.07;8.43;;;9.50;1.00;;;;;;8329428;28;20205;-65
2022/03/13 10:56:10;;;;;;;10.37;5.67;;;9.70;1.00;;;;;;8345991;28;20289;-66
2022/03/13 11:00:12;;;;;;;9.53;5.83;;;10.00;1.00;;;;;;8343886;28;20213;-64
2022/03/13 11:04:16;;;;;;;8.60;5.20;;;10.10;1.00;;;;;;8327131;28;20209;-65
2022/03/13 11:08:20;;;;;;;7.43;5.10;;;10.20;1.00;;;;;;8329335;28;20232;-64
2022/03/13 11:12:21;;;;;;;8.00;5.23;;;10.30;1.00;;;;;;8331892;28;20213;-66
2022/03/13 11:16:25;;;;;;;6.30;4.27;;;10.50;1.00;;;;;;8347897;28;20193;-66
2022/03/13 11:20:29;;;;;;;8.87;4.83;;;10.50;1.00;;;;;;8330830;28;20209;-65
2022/03/13 11:24:29;;;;;;;6.20;4.63;;;10.50;1.00;;;;;;8349563;28;20225;-66
2022/03/13 11:28:32;;;;;;;7.87;4.70;;;10.50;1.00;;;;;;8349523;28;20332;-64
2022/03/13 11:32:38;;;;;;;7.63;4.70;;;10.50;1.00;;;;;;8336417;28;20258;-67
2022/03/13 11:36:48;;;;;;;7.63;4.67;;;10.60;1.00;;;;;;8354374;28;20213;-64
2022/03/13 11:40:50;;;;;;;7.00;4.30;;;10.80;1.00;;;;;;8354418;28;20240;-64
2022/03/13 11:44:52;;;;;;;5.47;3.67;;;10.80;1.00;;;;;;8336039;28;20201;-65
2022/03/13 11:48:53;;;;;;;7.27;4.10;;;10.80;1.00;;;;;;8335589;28;20260;-64
2022/03/13 11:53:18;;;;;;;9.47;4.07;;;10.90;1.00;;;;;;8335662;28;20202;-63
2022/03/13 11:57:20;;;;;;;7.87;4.30;;;11.00;1.00;;;;;;8352213;28;20198;-65
2022/03/13 12:01:32;;;;;;;7.53;5.23;;;10.90;1.00;;;;;;8346254;28;20520;-64
2022/03/13 12:05:33;;;;;;;6.50;4.23;;;11.00;1.00;;;;;;8333227;28;20198;-62
2022/03/13 12:09:44;;;;;;;13.97;7.60;;;11.00;1.00;;;;;;8344236;28;20221;-64
2022/03/13 12:13:48;;;;;;;6.93;4.50;;;11.20;1.00;;;;;;8349458;28;20255;-66
2022/03/13 12:17:49;;;;;;;8.53;6.03;;;11.20;1.00;;;;;;8340040;28;20247;-64
2022/03/13 12:21:51;;;;;;;7.10;4.10;;;11.20;1.00;;;;;;8334830;28;20210;-64
2022/03/13 12:25:54;;;;;;;8.33;5.27;;;11.30;1.00;;;;;;8346828;28;20205;-63
2022/03/13 12:29:59;;;;;;;9.03;5.03;;;11.40;1.00;;;;;;8335911;28;20233;-63
2022/03/13 12:34:01;;;;;;;5.43;3.63;;;11.60;1.00;;;;;;8342204;28;20588;-66
2022/03/13 12:38:03;;;;;;;7.53;3.47;;;11.70;1.00;;;;;;8340533;28;20280;-63
2022/03/13 12:42:06;;;;;;;6.13;3.70;;;11.80;1.00;;;;;;8350926;28;20214;-65
2022/03/13 12:46:09;;;;;;;5.63;3.37;;;11.70;1.00;;;;;;8344390;28;20207;-66
2022/03/13 12:50:11;;;;;;;7.70;4.07;;;11.50;1.00;;;;;;8337672;28;20262;-64
2022/03/13 12:54:15;;;;;;;6.83;3.93;;;11.60;1.00;;;;;;8352053;28;20204;-64
2022/03/13 12:58:16;;;;;;;9.97;6.20;;;11.60;1.00;;;;;;8351041;28;20217;-65
2022/03/13 13:02:31;;;;;;;6.93;4.13;;;11.60;1.00;;;;;;8333764;28;20220;-65
2022/03/13 13:06:38;;;;;;;10.23;6.60;;;11.60;1.00;;;;;;8352308;28;20194;-64
2022/03/13 13:10:39;;;;;;;17.97;11.10;;;11.70;1.00;;;;;;8334250;28;20230;-63
2022/03/13 13:14:41;;;;;;;11.57;7.50;;;11.70;1.00;;;;;;8351719;28;20645;-63
2022/03/13 13:18:42;;;;;;;9.70;5.90;;;11.80;1.00;;;;;;8351636;28;20202;-64
2022/03/13 13:22:43;;;;;;;8.20;5.00;;;11.80;1.00;;;;;;8334186;28;20197;-66
2022/03/13 13:26:44;;;;;;;7.93;5.03;;;11.80;1.00;;;;;;8334152;28;20206;-65
2022/03/13 13:30:45;;;;;;;7.30;4.63;;;11.70;1.00;;;;;;8332550;28;20221;-64
2022/03/13 13:35:08;;;;;;;8.33;4.63;;;11.70;1.00;;;;;;8352704;28;20213;-64
2022/03/13 13:39:09;;;;;;;16.13;8.93;;;11.70;1.00;;;;;;8333270;28;20220;-62
2022/03/13 13:43:28;;;;;;;8.80;6.03;;;11.80;1.00;;;;;;8334666;28;20399;-63
2022/03/13 13:47:28;;;;;;;12.73;7.63;;;11.70;1.00;;;;;;8346444;28;20201;-64
2022/03/13 13:51:30;;;;;;;11.17;7.33;;;11.70;1.00;;;;;;8350175;28;20230;-65
2022/03/13 13:55:36;;;;;;;14.37;11.33;;;11.80;1.00;;;;;;8332711;28;20193;-66
2022/03/13 13:59:44;;;;;;;16.03;7.73;;;11.80;1.00;;;;;;8330905;28;20220;-67
2022/03/13 14:03:45;;;;;;;5.87;4.20;;;11.80;1.00;;;;;;8332941;28;20203;-65
2022/03/13 14:07:46;;;;;;;11.37;5.53;;;11.80;1.00;;;;;;8348845;28;20225;-65
2022/03/13 14:11:48;;;;;;;8.73;5.97;;;11.80;1.00;;;;;;8348400;28;20210;-63
2022/03/13 14:15:49;;;;;;;10.20;6.97;;;11.70;1.00;;;;;;8342418;28;20258;-63
2022/03/13 14:19:50;;;;;;;8.63;5.27;;;11.70;1.00;;;;;;8330296;28;20209;-66
2022/03/13 14:23:51;;;;;;;8.07;4.80;;;11.70;1.00;;;;;;8333002;28;20202;-64
2022/03/13 15:02:32;;;;;;;9.60;5.60;;;11.50;1.00;;;;;;8340969;28;20216;-66
2022/03/13 15:06:37;;;;;;;7.50;5.13;;;11.50;1.00;;;;;;8335084;28;20206;-64
2022/03/13 15:10:38;;;;;;;6.60;4.60;;;11.40;1.00;;;;;;8348170;28;20213;-65
2022/03/13 15:14:39;;;;;;;7.60;4.80;;;11.40;1.00;;;;;;8332446;28;20212;-65
2022/03/13 15:18:40;;;;;;;7.43;4.90;;;11.30;1.00;;;;;;8332205;28;20220;-64
2022/03/13 15:22:41;;;;;;;8.00;4.83;;;11.30;1.00;;;;;;8338555;28;20205;-67
2022/03/13 15:26:42;;;;;;;9.13;5.47;;;11.20;1.00;;;;;;8339803;28;20335;-64
2022/03/13 15:30:43;;;;;;;8.50;5.03;;;11.10;1.00;;;;;;8343445;28;20221;-67
2022/03/13 15:34:44;;;;;;;11.67;7.00;;;11.00;1.00;;;;;;8345333;28;20198;-66
2022/03/13 15:38:44;;;;;;;10.73;7.13;;;11.00;1.00;;;;;;8347332;28;20205;-65
2022/03/13 15:42:45;;;;;;;13.00;8.33;;;10.90;1.00;;;;;;8336186;28;20246;-64
2022/03/13 15:46:48;;;;;;;9.77;6.70;;;10.80;1.00;;;;;;8343278;28;20202;-64
2022/03/13 15:50:49;;;;;;;20.63;12.37;;;10.70;1.00;;;;;;8340693;28;20274;-64
2022/03/13 15:54:51;;;;;;;12.40;7.70;;;10.70;1.00;;;;;;8328019;28;20204;-66
2022/03/13 15:58:51;;;;;;;13.77;8.13;;;10.50;1.00;;;;;;8344902;28;20213;-66
2022/03/13 16:02:53;;;;;;;11.27;6.77;;;10.40;1.00;;;;;;8342621;28;20209;-65
2022/03/13 16:06:54;;;;;;;11.87;7.53;;;10.30;1.00;;;;;;8336243;28;20673;-65
2022/03/13 16:10:54;;;;;;;12.60;7.20;;;10.20;1.00;;;;;;8329329;28;20217;-64
2022/03/13 16:14:57;;;;;;;11.17;7.00;;;10.10;1.00;;;;;;8335965;28;20255;-63
2022/03/13 16:18:57;;;;;;;13.50;7.90;;;9.90;1.00;;;;;;8337408;28;20194;-65
2022/03/13 16:22:58;;;;;;;14.03;7.33;;;9.80;1.00;;;;;;8335087;28;20208;-66
2022/03/13 16:26:59;;;;;;;11.90;7.27;;;9.70;1.00;;;;;;8343606;28;20343;-66
2022/03/13 16:31:00;;;;;;;14.73;8.00;;;9.60;1.00;;;;;;8346790;28;20255;-65
2022/03/13 16:35:01;;;;;;;18.87;10.50;;;9.40;1.00;;;;;;8354346;28;20205;-64
2022/03/13 16:39:02;;;;;;;12.63;7.97;;;9.30;1.00;;;;;;8352947;28;20198;-65
2022/03/13 16:43:03;;;;;;;13.37;8.27;;;9.10;1.00;;;;;;8353471;28;20263;-64
2022/03/13 16:47:05;;;;;;;17.60;8.93;;;9.00;1.00;;;;;;8334939;28;20203;-67
2022/03/13 16:51:06;;;;;;;13.63;8.40;;;8.80;1.00;;;;;;8351519;28;20228;-66
2022/03/13 16:55:08;;;;;;;13.20;8.07;;;8.60;1.00;;;;;;8330201;28;20275;-66
2022/03/13 16:59:10;;;;;;;15.30;8.47;;;8.50;1.00;;;;;;8334261;28;20224;-65
2022/03/13 17:03:10;;;;;;;13.10;8.13;;;8.30;1.00;;;;;;8343554;28;20512;-66
2022/03/13 17:07:12;;;;;;;14.87;9.03;;;8.20;1.00;;;;;;8346940;28;20220;-66
2022/03/13 17:11:14;;;;;;;16.23;8.93;;;8.10;1.00;;;;;;8350751;28;20225;-66
2022/03/13 17:15:15;;;;;;;19.17;10.73;;;8.00;1.00;;;;;;8341610;28;20208;-65
2022/03/13 17:19:16;;;;;;;23.90;11.83;;;7.90;1.00;;;;;;8339689;28;20675;-66
2022/03/13 17:23:17;;;;;;;25.50;13.17;;;7.80;1.00;;;;;;8349475;28;20232;-65
2022/03/13 17:27:19;;;;;;;24.73;12.87;;;7.80;1.00;;;;;;8326741;28;20206;-66
2022/03/13 17:31:20;;;;;;;28.30;14.03;;;7.70;1.00;;;;;;8351058;28;20291;-67
2022/03/13 17:35:21;;;;;;;24.07;13.03;;;7.60;1.00;;;;;;8328517;28;20201;-67
2022/03/13 17:39:22;;;;;;;27.73;14.13;;;7.50;1.00;;;;;;8342414;28;20285;-63
2022/03/13 17:43:23;;;;;;;23.10;12.37;;;7.40;1.00;;;;;;8344801;28;20201;-64
2022/03/13 17:47:23;;;;;;;26.87;14.00;;;7.30;1.00;;;;;;8347124;28;20209;-65
2022/03/13 17:51:24;;;;;;;24.60;15.23;;;7.30;1.00;;;;;;8337510;28;20232;-64
2022/03/13 17:55:27;;;;;;;23.10;13.00;;;7.30;1.00;;;;;;8332584;28;20801;-63
2022/03/13 17:59:28;;;;;;;25.50;13.70;;;7.30;1.00;;;;;;8333812;28;20217;-63
2022/03/13 18:03:29;;;;;;;27.03;14.60;;;7.30;1.00;;;;;;8332189;28;20201;-63
2022/03/13 18:07:30;;;;;;;26.17;14.30;;;7.30;1.00;;;;;;8347840;28;20224;-65
2022/03/13 18:11:31;;;;;;;24.70;13.20;;;7.30;1.00;;;;;;8350635;28;20350;-63
2022/03/13 18:15:32;;;;;;;27.73;13.97;;;7.30;1.00;;;;;;8349933;28;20209;-64
2022/03/13 18:19:33;;;;;;;27.80;15.03;;;7.30;1.00;;;;;;8349667;28;20194;-65
2022/03/13 18:23:33;;;;;;;29.70;15.07;;;7.30;1.00;;;;;;8341931;28;20218;-66
2022/03/13 18:27:34;;;;;;;31.10;16.23;;;7.20;1.00;;;;;;8331753;28;20260;-64
2022/03/13 18:31:35;;;;;;;28.53;15.30;;;7.00;1.00;;;;;;8334528;28;20469;-65
2022/03/13 18:35:36;;;;;;;31.23;15.83;;;7.00;1.00;;;;;;8340147;28;20205;-66
2022/03/13 18:39:37;;;;;;;29.27;14.10;;;6.90;1.00;;;;;;8341629;28;20292;-65
2022/03/13 18:43:38;;;;;;;26.20;14.17;;;6.70;1.00;;;;;;8335726;28;20216;-66
2022/03/13 18:47:39;;;;;;;24.73;13.83;;;6.60;1.00;;;;;;8329150;28;20217;-64
2022/03/13 18:51:40;;;;;;;23.93;14.13;;;6.50;1.00;;;;;;8338134;28;20206;-66
2022/03/13 18:55:41;;;;;;;28.80;15.30;;;6.40;1.00;;;;;;8348239;28;20202;-65
2022/03/13 18:59:42;;;;;;;26.93;15.37;;;6.30;1.00;;;;;;8348351;28;20216;-65
2022/03/13 19:03:43;;;;;;;29.30;16.37;;;6.10;1.00;;;;;;8324477;28;20222;-62
2022/03/13 19:07:44;;;;;;;27.27;14.60;;;6.10;1.00;;;;;;8343923;28;20194;-64
2022/03/13 19:11:45;;;;;;;32.23;16.00;;;6.00;1.00;;;;;;8325029;28;20211;-66
2022/03/13 19:15:46;;;;;;;43.27;21.03;;;6.00;1.00;;;;;;8348240;28;20211;-64
2022/03/13 19:19:48;;;;;;;30.73;15.27;;;5.90;1.00;;;;;;8331958;28;20217;-64
2022/03/13 19:23:48;;;;;;;36.43;15.37;;;5.80;1.00;;;;;;8346355;28;20278;-66
2022/03/13 19:27:55;;;;;;;27.93;14.80;;;5.80;1.00;;;;;;8347603;28;20282;-63
2022/03/13 19:31:57;;;;;;;26.80;13.37;;;5.70;1.00;;;;;;8330279;28;20213;-66
2022/03/13 19:35:58;;;;;;;23.73;12.40;;;5.70;1.00;;;;;;8348148;28;20193;-66
2022/03/13 19:40:03;;;;;;;27.27;13.40;;;5.70;1.00;;;;;;8324475;28;20202;-65
2022/03/13 19:44:04;;;;;;;27.23;12.93;;;5.60;1.00;;;;;;8321547;28;20271;-64
2022/03/13 19:48:07;;;;;;;26.70;13.60;;;5.60;1.00;;;;;;8346218;28;20217;-66
2022/03/13 19:52:08;;;;;;;24.80;12.80;;;5.50;1.00;;;;;;8326842;28;20546;-65
2022/03/13 19:56:09;;;;;;;22.70;12.47;;;5.50;1.00;;;;;;8337579;28;20201;-64
2022/03/13 20:00:11;;;;;;;24.27;11.90;;;5.40;1.00;;;;;;8336223;28;20237;-65
2022/03/13 20:04:12;;;;;;;20.33;10.70;;;5.30;1.00;;;;;;8337261;28;20202;-63
2022/03/13 20:08:13;;;;;;;21.23;10.77;;;5.20;1.00;;;;;;8336207;28;20295;-64
2022/03/13 20:12:14;;;;;;;19.60;9.73;;;5.20;1.00;;;;;;8335733;28;20219;-62
2022/03/13 20:16:15;;;;;;;20.60;10.07;;;5.10;1.00;;;;;;8343335;28;20198;-64
2022/03/13 20:20:16;;;;;;;18.47;9.10;;;4.90;1.00;;;;;;8336705;28;20209;-64
2022/03/13 20:24:22;;;;;;;15.47;9.37;;;4.80;1.00;;;;;;8337045;28;20203;-66
2022/03/13 20:28:24;;;;;;;20.07;10.07;;;4.70;1.00;;;;;;8334986;28;20238;-66
2022/03/13 20:32:25;;;;;;;19.23;9.97;;;4.70;1.00;;;;;;8335988;28;20547;-62
2022/03/13 20:36:26;;;;;;;17.20;9.57;;;4.60;1.00;;;;;;8335757;28;20297;-65
2022/03/13 20:40:27;;;;;;;17.90;9.27;;;4.50;1.00;;;;;;8353623;28;20182;-65
2022/03/13 20:44:28;;;;;;;22.33;9.97;;;4.50;1.00;;;;;;8353487;28;20279;-65
2022/03/13 20:48:29;;;;;;;19.40;9.40;;;4.50;1.00;;;;;;8349150;28;20571;-65
2022/03/13 20:52:30;;;;;;;18.23;10.10;;;4.50;1.00;;;;;;8339848;28;20301;-66
2022/03/13 20:56:31;;;;;;;21.20;10.90;;;4.50;1.00;;;;;;8350828;28;20229;-65
2022/03/13 21:00:32;;;;;;;36.93;15.03;;;4.50;1.00;;;;;;8326620;28;20221;-66
2022/03/13 21:04:33;;;;;;;42.77;17.97;;;4.50;1.00;;;;;;8346665;28;20240;-65
2022/03/13 21:08:34;;;;;;;30.83;13.03;;;4.50;1.00;;;;;;8349634;28;20225;-66
2022/03/13 21:12:38;;;;;;;30.00;13.57;;;4.40;1.00;;;;;;8345391;28;20213;-66
2022/03/13 21:16:41;;;;;;;29.07;12.27;;;4.30;1.00;;;;;;8333617;28;20319;-66
2022/03/13 21:20:44;;;;;;;27.40;12.27;;;4.20;1.00;;;;;;8336366;28;20217;-65
2022/03/13 21:24:45;;;;;;;20.27;11.20;;;4.10;1.00;;;;;;8335604;28;20213;-67
2022/03/13 21:28:46;;;;;;;19.63;10.77;;;4.00;1.00;;;;;;8347076;28;20274;-66
2022/03/13 21:32:52;;;;;;;20.63;11.47;;;3.90;1.00;;;;;;8348390;28;20214;-65
2022/03/13 21:36:53;;;;;;;23.47;11.57;;;3.80;1.00;;;;;;8331429;28;20293;-64
2022/03/13 21:40:55;;;;;;;23.43;11.53;;;3.70;1.00;;;;;;8350909;28;20236;-65